sensor_id;sensor_type;location;lat;lon;timestamp;P1;durP1;ratioP1;P2;durP2;ratioP2
78288;SDS011;67539;48.752;12.922;2024-02-21T00:02:29;9.32;;;6.80;;
78288;SDS011;67539;48.752;12.922;2024-02-21T00:04:57;10.95;;;6.30;;
78288;SDS011;67539;48.752;12.922;2024-02-21T00:07:27;11.02;;;6.43;;
78288;SDS011;67539;48.752;12.922;2024-02-21T00:09:55;9.55;;;6.32;;
78288;SDS011;67539;48.752;12.922;2024-02-21T00:12:24;10.18;;;6.53;;
78288;SDS011;67539;48.752;12.922;2024-02-21T00:14:52;13.32;;;6.85;;
78288;SDS011;67539;48.752;12.922;2024-02-21T00:17:20;12.07;;;6.53;;
78288;SDS011;67539;48.752;12.922;2024-02-21T00:19:48;14.43;;;7.45;;
78288;SDS011;67539;48.752;12.922;2024-02-21T00:22:16;11.45;;;7.63;;
78288;SDS011;67539;48.752;12.922;2024-02-21T00:24:46;11.27;;;7.00;;
78288;SDS011;67539;48.752;12.922;2024-02-21T00:27:14;13.30;;;7.75;;
78288;SDS011;67539;48.752;12.922;2024-02-21T00:29:43;12.40;;;7.55;;
78288;SDS011;67539;48.752;12.922;2024-02-21T00:32:11;10.18;;;5.95;;
78288;SDS011;67539;48.752;12.922;2024-02-21T00:34:39;12.38;;;6.47;;
78288;SDS011;67539;48.752;12.922;2024-02-21T00:37:07;10.07;;;6.95;;
78288;SDS011;67539;48.752;12.922;2024-02-21T00:39:36;11.85;;;6.40;;
78288;SDS011;67539;48.752;12.922;2024-02-21T00:42:06;10.55;;;6.68;;
78288;SDS011;67539;48.752;12.922;2024-02-21T00:44:34;11.35;;;6.60;;
78288;SDS011;67539;48.752;12.922;2024-02-21T00:47:02;12.32;;;6.70;;
78288;SDS011;67539;48.752;12.922;2024-02-21T00:49:30;8.55;;;5.30;;
78288;SDS011;67539;48.752;12.922;2024-02-21T00:51:59;10.23;;;6.20;;
78288;SDS011;67539;48.752;12.922;2024-02-21T00:54:27;11.60;;;6.47;;
78288;SDS011;67539;48.752;12.922;2024-02-21T00:57:07;10.35;;;6.53;;
78288;SDS011;67539;48.752;12.922;2024-02-21T00:59:35;12.45;;;7.07;;
78288;SDS011;67539;48.752;12.922;2024-02-21T01:02:04;8.48;;;5.90;;
78288;SDS011;67539;48.752;12.922;2024-02-21T01:04:32;10.13;;;5.80;;
78288;SDS011;67539;48.752;12.922;2024-02-21T01:07:00;9.68;;;5.85;;
78288;SDS011;67539;48.752;12.922;2024-02-21T01:09:28;8.65;;;5.32;;
78288;SDS011;67539;48.752;12.922;2024-02-21T01:11:56;9.23;;;5.72;;
78288;SDS011;67539;48.752;12.922;2024-02-21T01:14:26;13.63;;;5.80;;
78288;SDS011;67539;48.752;12.922;2024-02-21T01:16:54;11.68;;;5.32;;
78288;SDS011;67539;48.752;12.922;2024-02-21T01:19:22;9.38;;;5.18;;
78288;SDS011;67539;48.752;12.922;2024-02-21T01:21:51;10.23;;;5.78;;
78288;SDS011;67539;48.752;12.922;2024-02-21T01:24:19;12.45;;;5.72;;
78288;SDS011;67539;48.752;12.922;2024-02-21T01:26:47;8.80;;;6.13;;
78288;SDS011;67539;48.752;12.922;2024-02-21T01:29:15;8.02;;;5.82;;
78288;SDS011;67539;48.752;12.922;2024-02-21T01:31:45;11.45;;;5.57;;
78288;SDS011;67539;48.752;12.922;2024-02-21T01:34:14;10.40;;;6.25;;
78288;SDS011;67539;48.752;12.922;2024-02-21T01:36:42;12.25;;;6.88;;
78288;SDS011;67539;48.752;12.922;2024-02-21T01:39:10;9.95;;;6.78;;
78288;SDS011;67539;48.752;12.922;2024-02-21T01:41:38;11.25;;;6.65;;
78288;SDS011;67539;48.752;12.922;2024-02-21T01:44:06;9.18;;;6.68;;
78288;SDS011;67539;48.752;12.922;2024-02-21T01:46:34;10.60;;;6.60;;
78288;SDS011;67539;48.752;12.922;2024-02-21T01:49:05;11.63;;;6.45;;
78288;SDS011;67539;48.752;12.922;2024-02-21T01:51:33;12.00;;;5.93;;
78288;SDS011;67539;48.752;12.922;2024-02-21T01:54:02;8.93;;;5.55;;
78288;SDS011;67539;48.752;12.922;2024-02-21T01:56:30;9.75;;;5.88;;
78288;SDS011;67539;48.752;12.922;2024-02-21T01:58:59;11.88;;;5.72;;
78288;SDS011;67539;48.752;12.922;2024-02-21T02:01:28;8.57;;;5.28;;
78288;SDS011;67539;48.752;12.922;2024-02-21T02:03:57;9.88;;;5.35;;
78288;SDS011;67539;48.752;12.922;2024-02-21T02:06:28;7.40;;;5.07;;
78288;SDS011;67539;48.752;12.922;2024-02-21T02:08:57;7.63;;;5.32;;
78288;SDS011;67539;48.752;12.922;2024-02-21T02:11:26;7.88;;;5.00;;
78288;SDS011;67539;48.752;12.922;2024-02-21T02:13:54;8.20;;;4.55;;
78288;SDS011;67539;48.752;12.922;2024-02-21T02:16:23;7.38;;;4.63;;
78288;SDS011;67539;48.752;12.922;2024-02-21T02:18:51;7.70;;;5.40;;
78288;SDS011;67539;48.752;12.922;2024-02-21T02:21:22;6.65;;;5.13;;
78288;SDS011;67539;48.752;12.922;2024-02-21T02:23:54;13.18;;;7.97;;
78288;SDS011;67539;48.752;12.922;2024-02-21T02:26:22;8.98;;;5.28;;
78288;SDS011;67539;48.752;12.922;2024-02-21T02:28:51;9.68;;;5.63;;
78288;SDS011;67539;48.752;12.922;2024-02-21T02:31:19;7.53;;;5.15;;
78288;SDS011;67539;48.752;12.922;2024-02-21T02:33:47;7.90;;;5.00;;
78288;SDS011;67539;48.752;12.922;2024-02-21T02:36:15;7.55;;;5.35;;
78288;SDS011;67539;48.752;12.922;2024-02-21T02:38:44;9.63;;;5.32;;
78288;SDS011;67539;48.752;12.922;2024-02-21T02:41:14;6.63;;;4.82;;
78288;SDS011;67539;48.752;12.922;2024-02-21T02:43:42;9.00;;;5.03;;
78288;SDS011;67539;48.752;12.922;2024-02-21T02:46:10;8.68;;;4.45;;
78288;SDS011;67539;48.752;12.922;2024-02-21T02:48:38;10.75;;;5.55;;
78288;SDS011;67539;48.752;12.922;2024-02-21T02:51:06;7.32;;;5.47;;
78288;SDS011;67539;48.752;12.922;2024-02-21T02:53:34;7.65;;;5.40;;
78288;SDS011;67539;48.752;12.922;2024-02-21T02:56:03;8.90;;;5.68;;
78288;SDS011;67539;48.752;12.922;2024-02-21T02:58:33;8.00;;;5.80;;
78288;SDS011;67539;48.752;12.922;2024-02-21T03:01:02;8.45;;;5.38;;
78288;SDS011;67539;48.752;12.922;2024-02-21T03:03:30;10.20;;;6.03;;
78288;SDS011;67539;48.752;12.922;2024-02-21T03:05:59;7.43;;;5.35;;
78288;SDS011;67539;48.752;12.922;2024-02-21T03:08:27;9.63;;;6.00;;
78288;SDS011;67539;48.752;12.922;2024-02-21T03:10:55;9.70;;;5.68;;
78288;SDS011;67539;48.752;12.922;2024-02-21T03:13:23;10.20;;;5.75;;
78288;SDS011;67539;48.752;12.922;2024-02-21T03:15:53;7.63;;;5.63;;
78288;SDS011;67539;48.752;12.922;2024-02-21T03:18:21;9.38;;;5.75;;
78288;SDS011;67539;48.752;12.922;2024-02-21T03:20:50;11.70;;;5.85;;
78288;SDS011;67539;48.752;12.922;2024-02-21T03:23:18;10.32;;;6.35;;
78288;SDS011;67539;48.752;12.922;2024-02-21T03:25:46;11.35;;;6.20;;
78288;SDS011;67539;48.752;12.922;2024-02-21T03:28:14;9.75;;;6.65;;
78288;SDS011;67539;48.752;12.922;2024-02-21T03:30:43;6.55;;;5.15;;
78288;SDS011;67539;48.752;12.922;2024-02-21T03:33:13;9.23;;;5.72;;
78288;SDS011;67539;48.752;12.922;2024-02-21T03:35:41;10.70;;;6.38;;
78288;SDS011;67539;48.752;12.922;2024-02-21T03:38:09;8.48;;;5.93;;
78288;SDS011;67539;48.752;12.922;2024-02-21T03:40:37;11.15;;;6.20;;
78288;SDS011;67539;48.752;12.922;2024-02-21T03:43:05;10.32;;;6.20;;
78288;SDS011;67539;48.752;12.922;2024-02-21T03:45:34;8.05;;;5.38;;
78288;SDS011;67539;48.752;12.922;2024-02-21T03:48:02;7.57;;;5.57;;
78288;SDS011;67539;48.752;12.922;2024-02-21T03:50:32;7.85;;;5.47;;
78288;SDS011;67539;48.752;12.922;2024-02-21T03:53:00;10.25;;;5.78;;
78288;SDS011;67539;48.752;12.922;2024-02-21T03:55:29;10.00;;;5.80;;
78288;SDS011;67539;48.752;12.922;2024-02-21T03:57:57;10.27;;;6.00;;
78288;SDS011;67539;48.752;12.922;2024-02-21T04:00:25;10.65;;;5.93;;
78288;SDS011;67539;48.752;12.922;2024-02-21T04:02:53;10.25;;;6.05;;
78288;SDS011;67539;48.752;12.922;2024-02-21T04:05:22;9.18;;;5.75;;
78288;SDS011;67539;48.752;12.922;2024-02-21T04:07:52;8.13;;;5.72;;
78288;SDS011;67539;48.752;12.922;2024-02-21T04:10:21;8.80;;;6.55;;
78288;SDS011;67539;48.752;12.922;2024-02-21T04:12:49;8.70;;;6.13;;
78288;SDS011;67539;48.752;12.922;2024-02-21T04:15:17;9.07;;;5.60;;
78288;SDS011;67539;48.752;12.922;2024-02-21T04:17:46;9.13;;;5.75;;
78288;SDS011;67539;48.752;12.922;2024-02-21T04:20:15;8.80;;;5.75;;
78288;SDS011;67539;48.752;12.922;2024-02-21T04:22:44;8.40;;;5.93;;
78288;SDS011;67539;48.752;12.922;2024-02-21T04:25:14;7.63;;;5.80;;
78288;SDS011;67539;48.752;12.922;2024-02-21T04:27:42;11.35;;;5.97;;
78288;SDS011;67539;48.752;12.922;2024-02-21T04:30:11;9.40;;;5.65;;
78288;SDS011;67539;48.752;12.922;2024-02-21T04:32:39;8.02;;;5.25;;
78288;SDS011;67539;48.752;12.922;2024-02-21T04:35:08;8.50;;;5.65;;
78288;SDS011;67539;48.752;12.922;2024-02-21T04:37:36;14.52;;;11.10;;
78288;SDS011;67539;48.752;12.922;2024-02-21T04:40:05;14.30;;;9.48;;
78288;SDS011;67539;48.752;12.922;2024-02-21T04:42:35;10.25;;;7.13;;
78288;SDS011;67539;48.752;12.922;2024-02-21T04:45:04;8.25;;;6.70;;
78288;SDS011;67539;48.752;12.922;2024-02-21T04:47:33;8.32;;;6.00;;
78288;SDS011;67539;48.752;12.922;2024-02-21T04:50:01;7.75;;;5.18;;
78288;SDS011;67539;48.752;12.922;2024-02-21T04:52:30;8.90;;;5.70;;
78288;SDS011;67539;48.752;12.922;2024-02-21T04:54:58;8.65;;;5.70;;
78288;SDS011;67539;48.752;12.922;2024-02-21T04:57:26;9.43;;;5.90;;
78288;SDS011;67539;48.752;12.922;2024-02-21T04:59:56;9.00;;;6.50;;
78288;SDS011;67539;48.752;12.922;2024-02-21T05:02:24;11.10;;;6.38;;
78288;SDS011;67539;48.752;12.922;2024-02-21T05:04:53;8.88;;;5.35;;
78288;SDS011;67539;48.752;12.922;2024-02-21T05:07:21;8.93;;;6.45;;
78288;SDS011;67539;48.752;12.922;2024-02-21T05:09:49;7.13;;;5.35;;
78288;SDS011;67539;48.752;12.922;2024-02-21T05:12:17;8.27;;;5.90;;
78288;SDS011;67539;48.752;12.922;2024-02-21T05:14:47;9.57;;;5.88;;
78288;SDS011;67539;48.752;12.922;2024-02-21T05:17:16;24.40;;;12.63;;
78288;SDS011;67539;48.752;12.922;2024-02-21T05:19:45;23.52;;;15.20;;
78288;SDS011;67539;48.752;12.922;2024-02-21T05:22:13;11.27;;;7.75;;
78288;SDS011;67539;48.752;12.922;2024-02-21T05:24:43;8.07;;;6.60;;
78288;SDS011;67539;48.752;12.922;2024-02-21T05:27:12;9.85;;;6.13;;
78288;SDS011;67539;48.752;12.922;2024-02-21T05:29:40;6.30;;;5.65;;
78288;SDS011;67539;48.752;12.922;2024-02-21T05:32:08;8.38;;;5.75;;
78288;SDS011;67539;48.752;12.922;2024-02-21T05:34:37;9.07;;;6.15;;
78288;SDS011;67539;48.752;12.922;2024-02-21T05:37:06;6.90;;;5.45;;
78288;SDS011;67539;48.752;12.922;2024-02-21T05:39:34;10.00;;;6.07;;
78288;SDS011;67539;48.752;12.922;2024-02-21T05:42:02;7.38;;;5.60;;
78288;SDS011;67539;48.752;12.922;2024-02-21T05:44:31;12.68;;;6.05;;
78288;SDS011;67539;48.752;12.922;2024-02-21T05:46:59;8.55;;;6.38;;
78288;SDS011;67539;48.752;12.922;2024-02-21T05:49:27;8.93;;;6.13;;
78288;SDS011;67539;48.752;12.922;2024-02-21T05:51:57;7.95;;;6.30;;
78288;SDS011;67539;48.752;12.922;2024-02-21T05:54:25;8.85;;;6.20;;
78288;SDS011;67539;48.752;12.922;2024-02-21T05:56:53;8.50;;;6.07;;
78288;SDS011;67539;48.752;12.922;2024-02-21T05:59:21;10.60;;;5.72;;
78288;SDS011;67539;48.752;12.922;2024-02-21T06:01:54;8.60;;;5.47;;
78288;SDS011;67539;48.752;12.922;2024-02-21T06:04:24;8.93;;;5.68;;
78288;SDS011;67539;48.752;12.922;2024-02-21T06:06:52;7.57;;;5.47;;
78288;SDS011;67539;48.752;12.922;2024-02-21T06:09:22;12.65;;;6.00;;
78288;SDS011;67539;48.752;12.922;2024-02-21T06:11:50;10.35;;;6.25;;
78288;SDS011;67539;48.752;12.922;2024-02-21T06:14:19;9.35;;;5.85;;
78288;SDS011;67539;48.752;12.922;2024-02-21T06:16:47;9.60;;;5.78;;
78288;SDS011;67539;48.752;12.922;2024-02-21T06:19:15;10.38;;;5.20;;
78288;SDS011;67539;48.752;12.922;2024-02-21T06:21:43;8.80;;;5.90;;
78288;SDS011;67539;48.752;12.922;2024-02-21T06:24:12;8.40;;;4.95;;
78288;SDS011;67539;48.752;12.922;2024-02-21T06:26:41;12.48;;;5.80;;
78288;SDS011;67539;48.752;12.922;2024-02-21T06:29:11;10.50;;;6.00;;
78288;SDS011;67539;48.752;12.922;2024-02-21T06:31:40;11.25;;;5.97;;
78288;SDS011;67539;48.752;12.922;2024-02-21T06:34:08;8.45;;;5.70;;
78288;SDS011;67539;48.752;12.922;2024-02-21T06:36:36;8.65;;;5.15;;
78288;SDS011;67539;48.752;12.922;2024-02-21T06:39:04;9.82;;;5.35;;
78288;SDS011;67539;48.752;12.922;2024-02-21T06:41:34;9.20;;;5.20;;
78288;SDS011;67539;48.752;12.922;2024-02-21T06:44:03;10.10;;;5.18;;
78288;SDS011;67539;48.752;12.922;2024-02-21T06:46:32;8.85;;;5.50;;
78288;SDS011;67539;48.752;12.922;2024-02-21T06:49:01;7.63;;;4.88;;
78288;SDS011;67539;48.752;12.922;2024-02-21T06:51:30;9.40;;;5.47;;
78288;SDS011;67539;48.752;12.922;2024-02-21T06:53:58;5.85;;;4.97;;
78288;SDS011;67539;48.752;12.922;2024-02-21T06:56:26;8.63;;;4.68;;
78288;SDS011;67539;48.752;12.922;2024-02-21T06:58:55;11.32;;;4.88;;
78288;SDS011;67539;48.752;12.922;2024-02-21T07:01:25;7.88;;;4.82;;
78288;SDS011;67539;48.752;12.922;2024-02-21T07:03:53;5.70;;;3.92;;
78288;SDS011;67539;48.752;12.922;2024-02-21T07:06:22;11.02;;;4.32;;
78288;SDS011;67539;48.752;12.922;2024-02-21T07:08:50;5.20;;;3.90;;
78288;SDS011;67539;48.752;12.922;2024-02-21T07:11:18;7.28;;;4.93;;
78288;SDS011;67539;48.752;12.922;2024-02-21T07:13:47;9.07;;;4.97;;
78288;SDS011;67539;48.752;12.922;2024-02-21T07:16:15;5.53;;;4.13;;
78288;SDS011;67539;48.752;12.922;2024-02-21T07:18:45;7.90;;;4.57;;
78288;SDS011;67539;48.752;12.922;2024-02-21T07:21:13;9.70;;;5.05;;
78288;SDS011;67539;48.752;12.922;2024-02-21T07:23:41;6.03;;;5.07;;
78288;SDS011;67539;48.752;12.922;2024-02-21T07:26:09;7.18;;;4.78;;
78288;SDS011;67539;48.752;12.922;2024-02-21T07:28:38;9.15;;;5.32;;
78288;SDS011;67539;48.752;12.922;2024-02-21T07:31:06;8.27;;;5.60;;
78288;SDS011;67539;48.752;12.922;2024-02-21T07:33:34;9.30;;;4.90;;
78288;SDS011;67539;48.752;12.922;2024-02-21T07:36:06;10.35;;;5.07;;
78288;SDS011;67539;48.752;12.922;2024-02-21T07:38:35;9.52;;;5.47;;
78288;SDS011;67539;48.752;12.922;2024-02-21T07:41:04;8.43;;;4.50;;
78288;SDS011;67539;48.752;12.922;2024-02-21T07:43:32;7.28;;;4.53;;
78288;SDS011;67539;48.752;12.922;2024-02-21T07:46:00;8.23;;;5.07;;
78288;SDS011;67539;48.752;12.922;2024-02-21T07:48:29;7.78;;;4.60;;
78288;SDS011;67539;48.752;12.922;2024-02-21T07:51:00;7.68;;;3.95;;
78288;SDS011;67539;48.752;12.922;2024-02-21T07:53:30;7.00;;;5.13;;
78288;SDS011;67539;48.752;12.922;2024-02-21T07:55:59;7.05;;;4.63;;
78288;SDS011;67539;48.752;12.922;2024-02-21T07:58:28;10.27;;;4.70;;
78288;SDS011;67539;48.752;12.922;2024-02-21T08:00:56;9.05;;;4.60;;
78288;SDS011;67539;48.752;12.922;2024-02-21T08:03:24;6.05;;;4.57;;
78288;SDS011;67539;48.752;12.922;2024-02-21T08:05:52;6.60;;;3.53;;
78288;SDS011;67539;48.752;12.922;2024-02-21T08:08:21;6.90;;;4.45;;
78288;SDS011;67539;48.752;12.922;2024-02-21T08:10:50;7.00;;;3.78;;
78288;SDS011;67539;48.752;12.922;2024-02-21T08:13:18;7.85;;;5.32;;
78288;SDS011;67539;48.752;12.922;2024-02-21T08:15:47;6.68;;;4.50;;
78288;SDS011;67539;48.752;12.922;2024-02-21T08:18:15;10.18;;;5.18;;
78288;SDS011;67539;48.752;12.922;2024-02-21T08:20:44;6.13;;;4.70;;
78288;SDS011;67539;48.752;12.922;2024-02-21T08:23:12;6.55;;;4.30;;
78288;SDS011;67539;48.752;12.922;2024-02-21T08:25:40;6.40;;;4.55;;
78288;SDS011;67539;48.752;12.922;2024-02-21T08:28:09;6.72;;;4.35;;
78288;SDS011;67539;48.752;12.922;2024-02-21T08:30:39;10.52;;;5.38;;
78288;SDS011;67539;48.752;12.922;2024-02-21T08:33:10;8.02;;;5.22;;
78288;SDS011;67539;48.752;12.922;2024-02-21T08:35:39;8.32;;;4.70;;
78288;SDS011;67539;48.752;12.922;2024-02-21T08:38:07;7.43;;;4.28;;
78288;SDS011;67539;48.752;12.922;2024-02-21T08:40:35;7.75;;;4.47;;
78288;SDS011;67539;48.752;12.922;2024-02-21T08:43:04;6.63;;;4.20;;
78288;SDS011;67539;48.752;12.922;2024-02-21T08:45:33;8.50;;;4.35;;
78288;SDS011;67539;48.752;12.922;2024-02-21T08:48:02;7.72;;;3.90;;
78288;SDS011;67539;48.752;12.922;2024-02-21T08:50:31;7.55;;;3.95;;
78288;SDS011;67539;48.752;12.922;2024-02-21T08:52:59;8.10;;;4.38;;
78288;SDS011;67539;48.752;12.922;2024-02-21T08:55:27;8.82;;;3.70;;
78288;SDS011;67539;48.752;12.922;2024-02-21T08:57:56;8.13;;;3.42;;
78288;SDS011;67539;48.752;12.922;2024-02-21T09:00:24;5.38;;;3.70;;
78288;SDS011;67539;48.752;12.922;2024-02-21T09:02:55;8.38;;;3.13;;
78288;SDS011;67539;48.752;12.922;2024-02-21T09:05:24;5.00;;;3.80;;
78288;SDS011;67539;48.752;12.922;2024-02-21T09:07:52;4.93;;;3.17;;
78288;SDS011;67539;48.752;12.922;2024-02-21T09:10:21;7.22;;;3.58;;
78288;SDS011;67539;48.752;12.922;2024-02-21T09:12:49;5.05;;;3.30;;
78288;SDS011;67539;48.752;12.922;2024-02-21T09:15:17;5.07;;;2.75;;
78288;SDS011;67539;48.752;12.922;2024-02-21T09:17:45;5.45;;;3.00;;
78288;SDS011;67539;48.752;12.922;2024-02-21T09:20:15;4.82;;;3.47;;
78288;SDS011;67539;48.752;12.922;2024-02-21T09:22:44;4.72;;;3.15;;
78288;SDS011;67539;48.752;12.922;2024-02-21T09:25:13;6.72;;;2.78;;
78288;SDS011;67539;48.752;12.922;2024-02-21T09:27:43;5.68;;;2.88;;
78288;SDS011;67539;48.752;12.922;2024-02-21T09:30:12;5.80;;;2.88;;
78288;SDS011;67539;48.752;12.922;2024-02-21T09:32:41;4.45;;;2.95;;
78288;SDS011;67539;48.752;12.922;2024-02-21T09:35:09;6.63;;;2.80;;
78288;SDS011;67539;48.752;12.922;2024-02-21T09:37:40;5.55;;;2.58;;
78288;SDS011;67539;48.752;12.922;2024-02-21T09:40:09;5.80;;;3.17;;
78288;SDS011;67539;48.752;12.922;2024-02-21T09:42:38;5.15;;;3.28;;
78288;SDS011;67539;48.752;12.922;2024-02-21T09:45:08;4.85;;;3.25;;
78288;SDS011;67539;48.752;12.922;2024-02-21T09:47:44;5.53;;;3.05;;
78288;SDS011;67539;48.752;12.922;2024-02-21T09:50:21;4.60;;;2.97;;
78288;SDS011;67539;48.752;12.922;2024-02-21T09:52:53;5.50;;;2.45;;
78288;SDS011;67539;48.752;12.922;2024-02-21T09:55:23;6.10;;;2.92;;
78288;SDS011;67539;48.752;12.922;2024-02-21T09:57:53;5.93;;;2.72;;
78288;SDS011;67539;48.752;12.922;2024-02-21T10:00:22;6.18;;;3.17;;
78288;SDS011;67539;48.752;12.922;2024-02-21T10:02:50;5.68;;;2.50;;
78288;SDS011;67539;48.752;12.922;2024-02-21T10:05:18;5.68;;;2.47;;
78288;SDS011;67539;48.752;12.922;2024-02-21T10:07:47;3.20;;;2.38;;
78288;SDS011;67539;48.752;12.922;2024-02-21T10:10:18;5.43;;;2.40;;
78288;SDS011;67539;48.752;12.922;2024-02-21T10:12:48;5.88;;;2.90;;
78288;SDS011;67539;48.752;12.922;2024-02-21T10:15:19;4.55;;;3.00;;
78288;SDS011;67539;48.752;12.922;2024-02-21T10:17:57;6.32;;;3.22;;
78288;SDS011;67539;48.752;12.922;2024-02-21T10:20:27;6.65;;;3.15;;
78288;SDS011;67539;48.752;12.922;2024-02-21T10:23:01;13.38;;;8.20;;
78288;SDS011;67539;48.752;12.922;2024-02-21T10:25:36;8.07;;;3.78;;
78288;SDS011;67539;48.752;12.922;2024-02-21T10:28:08;6.82;;;3.08;;
78288;SDS011;67539;48.752;12.922;2024-02-21T10:30:39;6.38;;;2.63;;
78288;SDS011;67539;48.752;12.922;2024-02-21T10:33:17;5.85;;;2.80;;
78288;SDS011;67539;48.752;12.922;2024-02-21T10:35:47;4.70;;;2.42;;
78288;SDS011;67539;48.752;12.922;2024-02-21T10:38:16;9.85;;;3.35;;
78288;SDS011;67539;48.752;12.922;2024-02-21T10:40:46;6.40;;;3.20;;
78288;SDS011;67539;48.752;12.922;2024-02-21T10:43:16;27.88;;;22.30;;
78288;SDS011;67539;48.752;12.922;2024-02-21T10:45:45;7.57;;;4.90;;
78288;SDS011;67539;48.752;12.922;2024-02-21T10:48:18;4.03;;;2.75;;
78288;SDS011;67539;48.752;12.922;2024-02-21T10:50:57;6.57;;;3.53;;
78288;SDS011;67539;48.752;12.922;2024-02-21T10:53:29;6.38;;;3.35;;
78288;SDS011;67539;48.752;12.922;2024-02-21T10:56:13;4.47;;;2.60;;
78288;SDS011;67539;48.752;12.922;2024-02-21T10:58:49;10.55;;;2.70;;
78288;SDS011;67539;48.752;12.922;2024-02-21T11:01:17;5.60;;;2.55;;
78288;SDS011;67539;48.752;12.922;2024-02-21T11:03:46;3.95;;;2.65;;
78288;SDS011;67539;48.752;12.922;2024-02-21T11:06:17;5.47;;;2.47;;
78288;SDS011;67539;48.752;12.922;2024-02-21T11:08:46;5.20;;;3.10;;
78288;SDS011;67539;48.752;12.922;2024-02-21T11:11:17;4.82;;;2.20;;
78288;SDS011;67539;48.752;12.922;2024-02-21T11:14:06;6.00;;;2.25;;
78288;SDS011;67539;48.752;12.922;2024-02-21T11:16:35;6.05;;;2.70;;
78288;SDS011;67539;48.752;12.922;2024-02-21T11:19:06;4.32;;;2.53;;
78288;SDS011;67539;48.752;12.922;2024-02-21T11:21:36;8.60;;;2.95;;
78288;SDS011;67539;48.752;12.922;2024-02-21T11:24:05;5.82;;;2.42;;
78288;SDS011;67539;48.752;12.922;2024-02-21T11:26:36;5.35;;;2.80;;
78288;SDS011;67539;48.752;12.922;2024-02-21T11:29:05;7.22;;;2.67;;
78288;SDS011;67539;48.752;12.922;2024-02-21T11:31:39;4.80;;;2.55;;
78288;SDS011;67539;48.752;12.922;2024-02-21T11:34:09;5.63;;;2.45;;
78288;SDS011;67539;48.752;12.922;2024-02-21T11:36:46;5.68;;;3.22;;
78288;SDS011;67539;48.752;12.922;2024-02-21T11:39:19;6.75;;;4.57;;
78288;SDS011;67539;48.752;12.922;2024-02-21T11:42:01;4.90;;;2.50;;
78288;SDS011;67539;48.752;12.922;2024-02-21T11:44:30;4.75;;;2.08;;
78288;SDS011;67539;48.752;12.922;2024-02-21T11:46:58;3.78;;;1.85;;
78288;SDS011;67539;48.752;12.922;2024-02-21T11:49:28;3.97;;;2.08;;
78288;SDS011;67539;48.752;12.922;2024-02-21T11:51:57;5.25;;;1.95;;
78288;SDS011;67539;48.752;12.922;2024-02-21T11:54:27;5.15;;;2.78;;
78288;SDS011;67539;48.752;12.922;2024-02-21T11:56:55;6.57;;;2.88;;
78288;SDS011;67539;48.752;12.922;2024-02-21T11:59:25;3.40;;;2.25;;
78288;SDS011;67539;48.752;12.922;2024-02-21T12:01:53;5.03;;;2.30;;
78288;SDS011;67539;48.752;12.922;2024-02-21T12:04:21;4.72;;;2.30;;
78288;SDS011;67539;48.752;12.922;2024-02-21T12:06:51;5.82;;;2.88;;
78288;SDS011;67539;48.752;12.922;2024-02-21T12:09:22;3.78;;;2.90;;
78288;SDS011;67539;48.752;12.922;2024-02-21T12:11:56;4.97;;;2.50;;
78288;SDS011;67539;48.752;12.922;2024-02-21T12:14:27;3.90;;;2.28;;
78288;SDS011;67539;48.752;12.922;2024-02-21T12:16:56;4.22;;;2.83;;
78288;SDS011;67539;48.752;12.922;2024-02-21T12:19:25;2.78;;;1.77;;
78288;SDS011;67539;48.752;12.922;2024-02-21T12:21:56;6.35;;;2.40;;
78288;SDS011;67539;48.752;12.922;2024-02-21T12:24:27;4.55;;;2.30;;
78288;SDS011;67539;48.752;12.922;2024-02-21T12:26:57;3.55;;;2.55;;
78288;SDS011;67539;48.752;12.922;2024-02-21T12:29:28;5.72;;;2.45;;
78288;SDS011;67539;48.752;12.922;2024-02-21T12:31:56;5.63;;;2.40;;
78288;SDS011;67539;48.752;12.922;2024-02-21T12:34:25;4.07;;;2.17;;
78288;SDS011;67539;48.752;12.922;2024-02-21T12:37:10;4.80;;;2.67;;
78288;SDS011;67539;48.752;12.922;2024-02-21T12:39:40;7.65;;;2.05;;
78288;SDS011;67539;48.752;12.922;2024-02-21T12:42:08;6.18;;;2.10;;
78288;SDS011;67539;48.752;12.922;2024-02-21T12:44:39;4.93;;;2.55;;
78288;SDS011;67539;48.752;12.922;2024-02-21T12:47:09;2.22;;;1.40;;
78288;SDS011;67539;48.752;12.922;2024-02-21T12:49:37;6.10;;;1.73;;
78288;SDS011;67539;48.752;12.922;2024-02-21T12:52:10;4.13;;;1.90;;
78288;SDS011;67539;48.752;12.922;2024-02-21T12:54:40;7.40;;;2.50;;
78288;SDS011;67539;48.752;12.922;2024-02-21T12:57:09;6.30;;;1.63;;
78288;SDS011;67539;48.752;12.922;2024-02-21T12:59:37;3.88;;;1.65;;
78288;SDS011;67539;48.752;12.922;2024-02-21T13:02:06;3.25;;;2.00;;
78288;SDS011;67539;48.752;12.922;2024-02-21T13:04:35;5.30;;;1.73;;
78288;SDS011;67539;48.752;12.922;2024-02-21T13:07:07;4.40;;;2.05;;
78288;SDS011;67539;48.752;12.922;2024-02-21T13:09:35;3.03;;;1.80;;
78288;SDS011;67539;48.752;12.922;2024-02-21T13:12:04;4.57;;;2.40;;
78288;SDS011;67539;48.752;12.922;2024-02-21T13:14:32;4.43;;;2.33;;
78288;SDS011;67539;48.752;12.922;2024-02-21T13:17:01;3.67;;;1.60;;
78288;SDS011;67539;48.752;12.922;2024-02-21T13:19:31;9.13;;;2.45;;
78288;SDS011;67539;48.752;12.922;2024-02-21T13:21:59;3.90;;;1.75;;
78288;SDS011;67539;48.752;12.922;2024-02-21T13:24:29;4.03;;;1.77;;
78288;SDS011;67539;48.752;12.922;2024-02-21T13:26:58;4.10;;;1.70;;
78288;SDS011;67539;48.752;12.922;2024-02-21T13:29:26;4.88;;;1.80;;
78288;SDS011;67539;48.752;12.922;2024-02-21T13:31:54;4.35;;;1.63;;
78288;SDS011;67539;48.752;12.922;2024-02-21T13:34:23;1.63;;;1.25;;
78288;SDS011;67539;48.752;12.922;2024-02-21T13:36:53;3.25;;;1.67;;
78288;SDS011;67539;48.752;12.922;2024-02-21T13:39:21;4.18;;;1.50;;
78288;SDS011;67539;48.752;12.922;2024-02-21T13:41:49;4.57;;;2.00;;
78288;SDS011;67539;48.752;12.922;2024-02-21T13:44:18;3.35;;;1.20;;
78288;SDS011;67539;48.752;12.922;2024-02-21T13:46:46;3.83;;;1.73;;
78288;SDS011;67539;48.752;12.922;2024-02-21T13:49:15;3.00;;;1.65;;
78288;SDS011;67539;48.752;12.922;2024-02-21T13:51:43;4.03;;;1.75;;
78288;SDS011;67539;48.752;12.922;2024-02-21T13:54:13;3.40;;;1.55;;
78288;SDS011;67539;48.752;12.922;2024-02-21T13:56:43;3.25;;;1.60;;
78288;SDS011;67539;48.752;12.922;2024-02-21T13:59:11;7.50;;;1.80;;
78288;SDS011;67539;48.752;12.922;2024-02-21T14:01:41;5.03;;;1.70;;
78288;SDS011;67539;48.752;12.922;2024-02-21T14:04:09;4.72;;;1.45;;
78288;SDS011;67539;48.752;12.922;2024-02-21T14:06:38;2.38;;;1.40;;
78288;SDS011;67539;48.752;12.922;2024-02-21T14:09:09;2.78;;;1.25;;
78288;SDS011;67539;48.752;12.922;2024-02-21T14:11:39;7.00;;;1.60;;
78288;SDS011;67539;48.752;12.922;2024-02-21T14:14:08;5.43;;;1.75;;
78288;SDS011;67539;48.752;12.922;2024-02-21T14:16:37;3.60;;;1.35;;
78288;SDS011;67539;48.752;12.922;2024-02-21T14:19:05;3.28;;;1.50;;
78288;SDS011;67539;48.752;12.922;2024-02-21T14:21:34;2.67;;;1.33;;
78288;SDS011;67539;48.752;12.922;2024-02-21T14:24:03;3.30;;;1.60;;
78288;SDS011;67539;48.752;12.922;2024-02-21T14:26:32;2.58;;;1.20;;
78288;SDS011;67539;48.752;12.922;2024-02-21T14:29:03;3.10;;;1.60;;
78288;SDS011;67539;48.752;12.922;2024-02-21T14:31:32;3.75;;;1.40;;
78288;SDS011;67539;48.752;12.922;2024-02-21T14:34:00;4.28;;;1.42;;
78288;SDS011;67539;48.752;12.922;2024-02-21T14:36:29;3.95;;;1.30;;
78288;SDS011;67539;48.752;12.922;2024-02-21T14:38:57;4.53;;;1.70;;
78288;SDS011;67539;48.752;12.922;2024-02-21T14:41:25;3.63;;;1.70;;
78288;SDS011;67539;48.752;12.922;2024-02-21T14:43:54;4.18;;;1.38;;